目前分類:電源專區 (127)

瀏覽方式: 標題列表 簡短摘要
發表時間 文章標題 人氣 留言
2017-07-17 置頂 Cooler Master MasterWatt Maker 1200 MIJ電源供應器-測試篇 (990) (1)
2017-07-11 置頂 Cooler Master MasterWatt Maker 1200 MIJ電源供應器-解析篇 (2420) (5)
2017-08-12 全漢皇鈦極AURUM PT-1000FM拆解 (467) (1)
2017-08-11 小瓦數金牌Antec TruePower Classic 450W拆解 (551) (0)
2017-08-10 銅牌加雙DC-DC的Antec Neo ECO II 650W拆解 (847) (0)
2017-08-06 振華白金冰蝶750W拆解 (889) (0)
2017-08-05 振華LEADEX PLATINUM 1000W電源供應器拆解 (1261) (0)
2017-08-04 Antec High Current Pro 850 Platinum電源供應器拆解 (867) (0)
2013-04-03 海韻金牌G系列550W模組化電源供應器簡介及測試 (30273) (20)
2013-03-23 Thermaltake Toughpower 650W金牌直出線電源簡介及測試 (5153) (2)
2013-03-07 Enermax Platimax白金認證全模組化1200W電源供應器簡介及測試 (3425) (3)
2013-03-02 全漢皇鈦極650W模組化白金電源簡介及測試 (17432) (0)
2013-02-02 VANTEC VOLTRA550模組化電源供應器簡介及測試 (2139) (1)
2013-01-28 Cooler Master新款Silent Pro Gold金牌直出線450W與550W電源簡介及測試 (8350) (6)
2012-10-24 XIGMATEK Centauro 700W模組化電源簡介及測試 (2617) (1)
2012-10-24 XIGMATEK TAURO 600W電源供應器簡介及測試 (7341) (5)
2012-10-08 鉅能80PLUS白金ASTRO PT 700W電源供應器簡介及測試 (2038) (1)
2012-10-07 帝海影隼S極致白金版1000W電源供應器簡介及測試 (3128) (2)
2012-09-29 帝海影隼S極致黃金版450W電源簡介及測試 (5457) (2)
2012-09-24 帝海影隼S極致白金版550W電源供應器簡介及測試 (8541) (11)
2012-09-02 PC POWER & COOLING SILENCER MkIII 600W簡介及測試 (1766) (1)
2012-09-01 CORSAIR第二代GS系列600W電源供應器簡介及測試 (2974) (0)
2012-08-20 CORSAIR AX1200i數位化全模組1200W電源供應器簡介及測試 (12997) (0)
2012-06-17 帝海影隼II 450W電源供應器簡介及測試 (5258) (4)
2012-06-06 Enhance Golden Commander系列500W/600W電源供應器簡介及測試 (3937) (4)
2012-04-01 Thermaltake Toughpower XT Platinum 1275W電源簡介及測試 (1934) (0)
2012-01-29 含PMBus界面的億泰興ETASIS EPAP-S860電源供應器簡介及測試 (3288) (1)
2012-01-26 Cooler Master Silent Pro Hybrid 1300W模組化電源供應器簡介及測試 (2309) (1)
2012-01-26 HEC Cougar Power 700W電源供應器簡介及測試 (2151) (6)
2012-01-26 CORSAIR HX1050模組化1050W電源供應器簡介及測試 (2284) (3)
2011-12-17 Cooler Master Silent Pro Gold 600W模組化電源供應器簡介及測試 (5551) (27)
2011-12-15 技嘉ODIN PLUS 700W電源供應器簡介及測試 (2159) (9)
2011-12-11 技嘉GREENMAX 750W電源供應器簡介及測試 (2420) (1)
2011-08-20 CORSAIR AX750模組化750W電源供應器簡介及測試 (6184) (4)
2011-08-17 CORSAIR第二代TX650V2 650W電源供應器簡介及測試 (2649) (6)
2011-08-07 十款金銀牌高效率機種測試大亂鬥 (43879) (15)
2011-07-29 [純圖片+測試]Corsair TX850 850W電源 (989) (0)
2011-07-29 [純圖片+測試]Enhance DARKKNIGHT 500W靜音電源 (1718) (1)
2011-07-29 [純圖片+測試]Hamer MIT 1000W電源 (1087) (1)
2011-07-29 [純圖片+測試]Antec Earthwatts EA-430D 430W及EA-500D 500W電源 (1969) (3)
2011-07-29 [純圖片+測試]Antec Basiq BP430 430W入門電源 (1525) (0)
2011-07-28 CORSAIR HX850模組化850W電源供應器-介紹篇 (5183) (0)
2011-07-24 ENERMAX MODU 87+金魔族模組化700W電源供應器-介紹篇 (3454) (0)
2011-07-23 ENERMAX MAXREVO模組化1350W電源供應器-介紹篇 (2563) (4)
2011-07-22 THORTECH THUNDERBOLT PLUS硬體監控800W電源供應器-介紹篇 (1712) (2)
2011-07-10 振華冰山金蝶PLUS 500W電源供應器-介紹篇 (12718) (6)
2011-07-10 TT Toughpower Grand 750W電源供應器-介紹篇 (4351) (0)
2011-07-04 be quiet! STRAIGHTPOWER GOLDEN 650W電源供應器-介紹篇 (5724) (4)
2011-07-04 帝海影隼II 80PLUS金牌550W電源供應器-介紹篇 (17471) (12)
2011-06-12 全漢AURUM金鈦極AU-400 400W電源供應器-介紹篇 (26666) (22)
1 23
找更多相關文章與討論